sensor_id;sensor_type;location;lat;lon;timestamp;P1;durP1;ratioP1;P2;durP2;ratioP2
1567;SDS011;777;47.156;8.326;2022-12-07T00:01:11;49.60;;;33.53;;
1567;SDS011;777;47.156;8.326;2022-12-07T00:03:54;53.88;;;34.42;;
1567;SDS011;777;47.156;8.326;2022-12-07T00:06:29;48.55;;;32.83;;
1567;SDS011;777;47.156;8.326;2022-12-07T00:08:58;46.58;;;31.85;;
1567;SDS011;777;47.156;8.326;2022-12-07T00:11:27;43.92;;;32.05;;
1567;SDS011;777;47.156;8.326;2022-12-07T00:13:56;45.15;;;31.38;;
1567;SDS011;777;47.156;8.326;2022-12-07T00:16:26;45.40;;;31.70;;
1567;SDS011;777;47.156;8.326;2022-12-07T00:18:56;47.60;;;32.63;;
1567;SDS011;777;47.156;8.326;2022-12-07T00:21:26;48.65;;;32.70;;
1567;SDS011;777;47.156;8.326;2022-12-07T00:23:55;52.83;;;33.70;;
1567;SDS011;777;47.156;8.326;2022-12-07T00:26:24;46.20;;;31.88;;
1567;SDS011;777;47.156;8.326;2022-12-07T00:28:56;47.63;;;31.98;;
1567;SDS011;777;47.156;8.326;2022-12-07T00:31:29;46.88;;;31.65;;
1567;SDS011;777;47.156;8.326;2022-12-07T00:34:01;45.88;;;32.67;;
1567;SDS011;777;47.156;8.326;2022-12-07T00:36:29;43.20;;;30.27;;
1567;SDS011;777;47.156;8.326;2022-12-07T00:38:57;44.30;;;30.70;;
1567;SDS011;777;47.156;8.326;2022-12-07T00:41:26;45.90;;;30.42;;
1567;SDS011;777;47.156;8.326;2022-12-07T00:43:54;44.67;;;31.08;;
1567;SDS011;777;47.156;8.326;2022-12-07T00:46:21;41.85;;;29.80;;
1567;SDS011;777;47.156;8.326;2022-12-07T00:48:49;42.10;;;28.90;;
1567;SDS011;777;47.156;8.326;2022-12-07T00:51:20;41.78;;;27.90;;
1567;SDS011;777;47.156;8.326;2022-12-07T00:53:50;44.33;;;30.33;;
1567;SDS011;777;47.156;8.326;2022-12-07T00:56:18;45.88;;;30.73;;
1567;SDS011;777;47.156;8.326;2022-12-07T00:58:49;44.33;;;30.13;;
1567;SDS011;777;47.156;8.326;2022-12-07T01:01:19;42.80;;;29.85;;
1567;SDS011;777;47.156;8.326;2022-12-07T01:03:46;46.13;;;30.95;;
1567;SDS011;777;47.156;8.326;2022-12-07T01:06:14;46.25;;;30.85;;
1567;SDS011;777;47.156;8.326;2022-12-07T01:08:44;42.03;;;28.63;;
1567;SDS011;777;47.156;8.326;2022-12-07T01:11:12;38.50;;;27.58;;
1567;SDS011;777;47.156;8.326;2022-12-07T01:13:40;41.67;;;28.35;;
1567;SDS011;777;47.156;8.326;2022-12-07T01:16:10;41.53;;;28.33;;
1567;SDS011;777;47.156;8.326;2022-12-07T01:18:38;41.45;;;27.02;;
1567;SDS011;777;47.156;8.326;2022-12-07T01:21:06;41.80;;;28.80;;
1567;SDS011;777;47.156;8.326;2022-12-07T01:23:37;41.30;;;27.63;;
1567;SDS011;777;47.156;8.326;2022-12-07T01:26:11;42.58;;;28.58;;
1567;SDS011;777;47.156;8.326;2022-12-07T01:28:41;39.78;;;27.98;;
1567;SDS011;777;47.156;8.326;2022-12-07T01:31:12;39.15;;;27.45;;
1567;SDS011;777;47.156;8.326;2022-12-07T01:33:43;42.35;;;28.45;;
1567;SDS011;777;47.156;8.326;2022-12-07T01:36:13;40.55;;;27.85;;
1567;SDS011;777;47.156;8.326;2022-12-07T01:38:42;41.63;;;27.80;;
1567;SDS011;777;47.156;8.326;2022-12-07T01:41:14;41.35;;;27.90;;
1567;SDS011;777;47.156;8.326;2022-12-07T01:46:42;41.50;;;28.83;;
1567;SDS011;777;47.156;8.326;2022-12-07T01:49:11;40.03;;;27.77;;
1567;SDS011;777;47.156;8.326;2022-12-07T01:51:55;40.72;;;28.45;;
1567;SDS011;777;47.156;8.326;2022-12-07T01:54:28;39.35;;;27.45;;
1567;SDS011;777;47.156;8.326;2022-12-07T01:56:58;37.38;;;26.33;;
1567;SDS011;777;47.156;8.326;2022-12-07T01:59:35;40.42;;;27.60;;
1567;SDS011;777;47.156;8.326;2022-12-07T02:02:06;35.08;;;26.30;;
1567;SDS011;777;47.156;8.326;2022-12-07T02:04:38;37.47;;;27.67;;
1567;SDS011;777;47.156;8.326;2022-12-07T02:07:05;33.15;;;24.90;;
1567;SDS011;777;47.156;8.326;2022-12-07T02:09:33;36.50;;;26.30;;
1567;SDS011;777;47.156;8.326;2022-12-07T02:12:02;34.17;;;26.23;;
1567;SDS011;777;47.156;8.326;2022-12-07T02:14:31;32.53;;;25.48;;
1567;SDS011;777;47.156;8.326;2022-12-07T02:17:02;32.95;;;25.35;;
1567;SDS011;777;47.156;8.326;2022-12-07T02:19:42;31.33;;;24.50;;
1567;SDS011;777;47.156;8.326;2022-12-07T02:22:34;30.88;;;23.55;;
1567;SDS011;777;47.156;8.326;2022-12-07T02:25:32;32.03;;;25.83;;
1567;SDS011;777;47.156;8.326;2022-12-07T02:28:12;41.80;;;30.90;;
1567;SDS011;777;47.156;8.326;2022-12-07T02:31:06;39.53;;;30.48;;
1567;SDS011;777;47.156;8.326;2022-12-07T02:33:39;39.60;;;30.40;;
1567;SDS011;777;47.156;8.326;2022-12-07T02:36:12;34.30;;;26.23;;
1567;SDS011;777;47.156;8.326;2022-12-07T02:38:45;31.83;;;25.20;;
1567;SDS011;777;47.156;8.326;2022-12-07T02:41:18;31.33;;;25.53;;
1567;SDS011;777;47.156;8.326;2022-12-07T02:43:52;32.70;;;25.40;;
1567;SDS011;777;47.156;8.326;2022-12-07T02:46:22;32.38;;;25.40;;
1567;SDS011;777;47.156;8.326;2022-12-07T02:48:53;29.98;;;24.65;;
1567;SDS011;777;47.156;8.326;2022-12-07T02:51:21;32.92;;;24.42;;
1567;SDS011;777;47.156;8.326;2022-12-07T02:53:49;31.35;;;25.63;;
1567;SDS011;777;47.156;8.326;2022-12-07T02:56:25;30.70;;;24.65;;
1567;SDS011;777;47.156;8.326;2022-12-07T02:59:02;32.75;;;25.75;;
1567;SDS011;777;47.156;8.326;2022-12-07T03:01:43;31.27;;;24.42;;
1567;SDS011;777;47.156;8.326;2022-12-07T03:04:23;31.75;;;24.17;;
1567;SDS011;777;47.156;8.326;2022-12-07T03:07:03;31.30;;;25.02;;
1567;SDS011;777;47.156;8.326;2022-12-07T03:09:40;32.55;;;24.50;;
1567;SDS011;777;47.156;8.326;2022-12-07T03:12:13;31.55;;;25.55;;
1567;SDS011;777;47.156;8.326;2022-12-07T03:14:45;32.22;;;25.20;;
1567;SDS011;777;47.156;8.326;2022-12-07T03:17:24;31.45;;;24.95;;
1567;SDS011;777;47.156;8.326;2022-12-07T03:19:54;33.55;;;24.77;;
1567;SDS011;777;47.156;8.326;2022-12-07T03:22:26;33.63;;;26.70;;
1567;SDS011;777;47.156;8.326;2022-12-07T03:24:57;32.60;;;25.20;;
1567;SDS011;777;47.156;8.326;2022-12-07T03:27:29;33.88;;;26.08;;
1567;SDS011;777;47.156;8.326;2022-12-07T03:30:03;34.70;;;26.25;;
1567;SDS011;777;47.156;8.326;2022-12-07T03:32:36;33.35;;;26.08;;
1567;SDS011;777;47.156;8.326;2022-12-07T03:35:07;34.58;;;26.13;;
1567;SDS011;777;47.156;8.326;2022-12-07T03:37:42;32.00;;;25.23;;
1567;SDS011;777;47.156;8.326;2022-12-07T03:40:16;33.42;;;25.20;;
1567;SDS011;777;47.156;8.326;2022-12-07T03:42:50;33.15;;;26.20;;
1567;SDS011;777;47.156;8.326;2022-12-07T03:45:21;30.33;;;24.65;;
1567;SDS011;777;47.156;8.326;2022-12-07T03:50:29;34.45;;;26.52;;
1567;SDS011;777;47.156;8.326;2022-12-07T03:53:04;33.67;;;26.65;;
1567;SDS011;777;47.156;8.326;2022-12-07T03:55:35;31.70;;;25.45;;
1567;SDS011;777;47.156;8.326;2022-12-07T03:58:09;33.28;;;26.05;;
1567;SDS011;777;47.156;8.326;2022-12-07T04:00:40;33.92;;;26.00;;
1567;SDS011;777;47.156;8.326;2022-12-07T04:03:09;34.50;;;27.05;;
1567;SDS011;777;47.156;8.326;2022-12-07T04:05:39;34.88;;;27.23;;
1567;SDS011;777;47.156;8.326;2022-12-07T04:08:06;33.05;;;26.23;;
1567;SDS011;777;47.156;8.326;2022-12-07T04:10:34;34.40;;;26.40;;
1567;SDS011;777;47.156;8.326;2022-12-07T04:13:02;31.45;;;25.33;;
1567;SDS011;777;47.156;8.326;2022-12-07T04:15:29;32.75;;;24.35;;
1567;SDS011;777;47.156;8.326;2022-12-07T04:17:58;35.25;;;25.75;;
1567;SDS011;777;47.156;8.326;2022-12-07T04:20:26;31.88;;;25.27;;
1567;SDS011;777;47.156;8.326;2022-12-07T04:22:58;30.00;;;23.90;;
1567;SDS011;777;47.156;8.326;2022-12-07T04:25:25;32.10;;;25.83;;
1567;SDS011;777;47.156;8.326;2022-12-07T04:27:52;31.45;;;25.25;;
1567;SDS011;777;47.156;8.326;2022-12-07T04:30:20;31.75;;;25.45;;
1567;SDS011;777;47.156;8.326;2022-12-07T04:32:47;30.83;;;25.20;;
1567;SDS011;777;47.156;8.326;2022-12-07T04:35:15;33.20;;;26.38;;
1567;SDS011;777;47.156;8.326;2022-12-07T04:37:44;32.20;;;25.83;;
1567;SDS011;777;47.156;8.326;2022-12-07T04:40:12;33.47;;;26.27;;
1567;SDS011;777;47.156;8.326;2022-12-07T04:42:40;31.48;;;26.08;;
1567;SDS011;777;47.156;8.326;2022-12-07T04:45:08;28.88;;;24.08;;
1567;SDS011;777;47.156;8.326;2022-12-07T04:47:35;30.85;;;25.20;;
1567;SDS011;777;47.156;8.326;2022-12-07T04:50:05;31.88;;;25.70;;
1567;SDS011;777;47.156;8.326;2022-12-07T04:52:37;31.30;;;25.67;;
1567;SDS011;777;47.156;8.326;2022-12-07T04:55:07;29.83;;;24.70;;
1567;SDS011;777;47.156;8.326;2022-12-07T04:57:34;32.03;;;25.60;;
1567;SDS011;777;47.156;8.326;2022-12-07T05:00:03;32.10;;;25.30;;
1567;SDS011;777;47.156;8.326;2022-12-07T05:02:31;33.72;;;25.50;;
1567;SDS011;777;47.156;8.326;2022-12-07T05:04:58;30.25;;;24.52;;
1567;SDS011;777;47.156;8.326;2022-12-07T05:07:25;33.03;;;26.45;;
1567;SDS011;777;47.156;8.326;2022-12-07T05:09:54;32.47;;;25.80;;
1567;SDS011;777;47.156;8.326;2022-12-07T05:12:23;31.67;;;25.83;;
1567;SDS011;777;47.156;8.326;2022-12-07T05:14:50;31.17;;;25.15;;
1567;SDS011;777;47.156;8.326;2022-12-07T05:17:18;31.40;;;25.25;;
1567;SDS011;777;47.156;8.326;2022-12-07T05:19:46;31.63;;;25.92;;
1567;SDS011;777;47.156;8.326;2022-12-07T05:22:13;33.17;;;26.98;;
1567;SDS011;777;47.156;8.326;2022-12-07T05:24:40;32.42;;;25.45;;
1567;SDS011;777;47.156;8.326;2022-12-07T05:27:07;32.85;;;25.67;;
1567;SDS011;777;47.156;8.326;2022-12-07T05:29:36;31.27;;;25.67;;
1567;SDS011;777;47.156;8.326;2022-12-07T05:32:04;31.58;;;25.60;;
1567;SDS011;777;47.156;8.326;2022-12-07T05:34:32;36.10;;;27.17;;
1567;SDS011;777;47.156;8.326;2022-12-07T05:37:03;33.85;;;25.90;;
1567;SDS011;777;47.156;8.326;2022-12-07T05:39:31;35.10;;;27.70;;
1567;SDS011;777;47.156;8.326;2022-12-07T05:42:00;32.55;;;25.85;;
1567;SDS011;777;47.156;8.326;2022-12-07T05:44:45;33.72;;;26.10;;
1567;SDS011;777;47.156;8.326;2022-12-07T05:47:13;33.95;;;26.75;;
1567;SDS011;777;47.156;8.326;2022-12-07T05:49:44;40.42;;;29.00;;
1567;SDS011;777;47.156;8.326;2022-12-07T05:52:11;35.80;;;27.00;;
1567;SDS011;777;47.156;8.326;2022-12-07T05:54:38;35.65;;;26.95;;
1567;SDS011;777;47.156;8.326;2022-12-07T05:57:06;37.67;;;29.10;;
1567;SDS011;777;47.156;8.326;2022-12-07T05:59:33;39.40;;;30.00;;
1567;SDS011;777;47.156;8.326;2022-12-07T06:02:02;38.15;;;28.40;;
1567;SDS011;777;47.156;8.326;2022-12-07T06:04:31;35.75;;;28.20;;
1567;SDS011;777;47.156;8.326;2022-12-07T06:07:00;38.42;;;29.25;;
1567;SDS011;777;47.156;8.326;2022-12-07T06:09:27;35.05;;;27.90;;
1567;SDS011;777;47.156;8.326;2022-12-07T06:11:55;36.63;;;26.58;;
1567;SDS011;777;47.156;8.326;2022-12-07T06:14:40;34.22;;;25.92;;
1567;SDS011;777;47.156;8.326;2022-12-07T06:17:08;34.35;;;26.85;;
1567;SDS011;777;47.156;8.326;2022-12-07T06:19:37;35.78;;;26.63;;
1567;SDS011;777;47.156;8.326;2022-12-07T06:22:04;35.00;;;26.65;;
1567;SDS011;777;47.156;8.326;2022-12-07T06:24:32;36.00;;;26.95;;
1567;SDS011;777;47.156;8.326;2022-12-07T06:26:59;41.47;;;30.33;;
1567;SDS011;777;47.156;8.326;2022-12-07T06:29:27;34.17;;;26.02;;
1567;SDS011;777;47.156;8.326;2022-12-07T06:31:54;34.25;;;25.85;;
1567;SDS011;777;47.156;8.326;2022-12-07T06:34:23;34.00;;;26.13;;
1567;SDS011;777;47.156;8.326;2022-12-07T06:36:51;34.22;;;25.40;;
1567;SDS011;777;47.156;8.326;2022-12-07T06:39:20;36.25;;;27.20;;
1567;SDS011;777;47.156;8.326;2022-12-07T06:41:49;33.65;;;25.40;;
1567;SDS011;777;47.156;8.326;2022-12-07T06:44:17;35.58;;;26.80;;
1567;SDS011;777;47.156;8.326;2022-12-07T06:46:44;37.22;;;27.30;;
1567;SDS011;777;47.156;8.326;2022-12-07T06:49:11;36.25;;;27.25;;
1567;SDS011;777;47.156;8.326;2022-12-07T06:51:40;34.03;;;26.15;;
1567;SDS011;777;47.156;8.326;2022-12-07T06:54:07;35.70;;;26.75;;
1567;SDS011;777;47.156;8.326;2022-12-07T06:56:34;34.88;;;27.20;;
1567;SDS011;777;47.156;8.326;2022-12-07T06:59:02;33.80;;;26.42;;
1567;SDS011;777;47.156;8.326;2022-12-07T07:01:30;35.22;;;26.70;;
1567;SDS011;777;47.156;8.326;2022-12-07T07:03:57;35.33;;;26.33;;
1567;SDS011;777;47.156;8.326;2022-12-07T07:06:25;32.50;;;25.05;;
1567;SDS011;777;47.156;8.326;2022-12-07T07:08:53;33.85;;;26.15;;
1567;SDS011;777;47.156;8.326;2022-12-07T07:11:20;36.55;;;25.90;;
1567;SDS011;777;47.156;8.326;2022-12-07T07:13:47;38.30;;;27.85;;
1567;SDS011;777;47.156;8.326;2022-12-07T07:16:14;36.13;;;26.33;;
1567;SDS011;777;47.156;8.326;2022-12-07T07:18:41;33.42;;;25.85;;
1567;SDS011;777;47.156;8.326;2022-12-07T07:21:08;33.53;;;26.77;;
1567;SDS011;777;47.156;8.326;2022-12-07T07:23:37;33.67;;;26.38;;
1567;SDS011;777;47.156;8.326;2022-12-07T07:26:05;36.00;;;27.23;;
1567;SDS011;777;47.156;8.326;2022-12-07T07:28:32;34.97;;;26.95;;
1567;SDS011;777;47.156;8.326;2022-12-07T07:30:59;34.78;;;26.73;;
1567;SDS011;777;47.156;8.326;2022-12-07T07:33:26;34.38;;;25.45;;
1567;SDS011;777;47.156;8.326;2022-12-07T07:35:53;35.33;;;26.23;;
1567;SDS011;777;47.156;8.326;2022-12-07T07:38:20;31.85;;;25.52;;
1567;SDS011;777;47.156;8.326;2022-12-07T07:40:47;35.30;;;26.90;;
1567;SDS011;777;47.156;8.326;2022-12-07T07:43:15;37.92;;;28.17;;
1567;SDS011;777;47.156;8.326;2022-12-07T07:45:42;35.47;;;26.92;;
1567;SDS011;777;47.156;8.326;2022-12-07T07:48:10;37.08;;;27.70;;
1567;SDS011;777;47.156;8.326;2022-12-07T07:50:37;36.40;;;28.10;;
1567;SDS011;777;47.156;8.326;2022-12-07T07:53:04;36.47;;;28.00;;
1567;SDS011;777;47.156;8.326;2022-12-07T07:55:31;35.70;;;28.00;;
1567;SDS011;777;47.156;8.326;2022-12-07T07:57:58;37.33;;;28.77;;
1567;SDS011;777;47.156;8.326;2022-12-07T08:00:27;40.15;;;29.95;;
1567;SDS011;777;47.156;8.326;2022-12-07T08:02:54;39.15;;;29.73;;
1567;SDS011;777;47.156;8.326;2022-12-07T08:05:21;40.55;;;29.58;;
1567;SDS011;777;47.156;8.326;2022-12-07T08:07:48;41.47;;;30.98;;
1567;SDS011;777;47.156;8.326;2022-12-07T08:10:15;40.70;;;29.50;;
1567;SDS011;777;47.156;8.326;2022-12-07T08:12:42;38.83;;;29.73;;
1567;SDS011;777;47.156;8.326;2022-12-07T08:15:29;39.78;;;29.92;;
1567;SDS011;777;47.156;8.326;2022-12-07T08:17:57;40.25;;;29.48;;
1567;SDS011;777;47.156;8.326;2022-12-07T08:20:24;42.50;;;30.70;;
1567;SDS011;777;47.156;8.326;2022-12-07T08:22:51;41.08;;;30.40;;
1567;SDS011;777;47.156;8.326;2022-12-07T08:25:18;40.95;;;29.58;;
1567;SDS011;777;47.156;8.326;2022-12-07T08:27:46;46.38;;;31.15;;
1567;SDS011;777;47.156;8.326;2022-12-07T08:30:13;38.42;;;28.10;;
1567;SDS011;777;47.156;8.326;2022-12-07T08:32:41;38.88;;;27.95;;
1567;SDS011;777;47.156;8.326;2022-12-07T08:35:10;36.88;;;28.48;;
1567;SDS011;777;47.156;8.326;2022-12-07T08:37:37;38.67;;;28.73;;
1567;SDS011;777;47.156;8.326;2022-12-07T08:40:05;40.45;;;30.13;;
1567;SDS011;777;47.156;8.326;2022-12-07T08:42:34;41.88;;;29.10;;
1567;SDS011;777;47.156;8.326;2022-12-07T08:45:05;41.97;;;29.90;;
1567;SDS011;777;47.156;8.326;2022-12-07T08:47:34;41.33;;;31.45;;
1567;SDS011;777;47.156;8.326;2022-12-07T08:50:05;38.80;;;29.45;;
1567;SDS011;777;47.156;8.326;2022-12-07T08:52:34;38.50;;;29.10;;
1567;SDS011;777;47.156;8.326;2022-12-07T08:55:02;40.60;;;29.17;;
1567;SDS011;777;47.156;8.326;2022-12-07T08:57:31;38.38;;;29.63;;
1567;SDS011;777;47.156;8.326;2022-12-07T09:00:00;39.97;;;29.88;;
1567;SDS011;777;47.156;8.326;2022-12-07T09:02:28;39.05;;;29.20;;
1567;SDS011;777;47.156;8.326;2022-12-07T09:04:57;41.38;;;30.20;;
1567;SDS011;777;47.156;8.326;2022-12-07T09:07:25;41.33;;;29.95;;
1567;SDS011;777;47.156;8.326;2022-12-07T09:09:53;37.80;;;28.95;;
1567;SDS011;777;47.156;8.326;2022-12-07T09:12:20;42.92;;;32.03;;
1567;SDS011;777;47.156;8.326;2022-12-07T09:14:47;44.05;;;30.33;;
1567;SDS011;777;47.156;8.326;2022-12-07T09:17:14;44.08;;;31.38;;
1567;SDS011;777;47.156;8.326;2022-12-07T09:19:41;44.13;;;32.95;;
1567;SDS011;777;47.156;8.326;2022-12-07T09:22:09;41.50;;;31.40;;
1567;SDS011;777;47.156;8.326;2022-12-07T09:24:37;40.70;;;30.88;;
1567;SDS011;777;47.156;8.326;2022-12-07T09:27:04;37.88;;;29.10;;
1567;SDS011;777;47.156;8.326;2022-12-07T09:29:31;39.55;;;29.10;;
1567;SDS011;777;47.156;8.326;2022-12-07T09:31:58;42.08;;;30.50;;
1567;SDS011;777;47.156;8.326;2022-12-07T09:34:25;38.85;;;28.88;;
1567;SDS011;777;47.156;8.326;2022-12-07T09:36:52;35.55;;;28.27;;
1567;SDS011;777;47.156;8.326;2022-12-07T09:39:19;37.85;;;28.67;;
1567;SDS011;777;47.156;8.326;2022-12-07T09:41:48;38.05;;;28.92;;
1567;SDS011;777;47.156;8.326;2022-12-07T09:44:17;36.53;;;28.65;;
1567;SDS011;777;47.156;8.326;2022-12-07T09:46:49;37.25;;;28.83;;
1567;SDS011;777;47.156;8.326;2022-12-07T09:49:18;38.95;;;28.65;;
1567;SDS011;777;47.156;8.326;2022-12-07T09:51:47;39.13;;;28.95;;
1567;SDS011;777;47.156;8.326;2022-12-07T09:54:25;42.28;;;31.35;;
1567;SDS011;777;47.156;8.326;2022-12-07T09:56:53;41.78;;;30.73;;
1567;SDS011;777;47.156;8.326;2022-12-07T09:59:20;44.72;;;30.77;;
1567;SDS011;777;47.156;8.326;2022-12-07T10:01:48;42.10;;;29.75;;
1567;SDS011;777;47.156;8.326;2022-12-07T10:04:17;44.45;;;32.13;;
1567;SDS011;777;47.156;8.326;2022-12-07T10:06:46;44.65;;;30.65;;
1567;SDS011;777;47.156;8.326;2022-12-07T10:09:16;43.47;;;31.65;;
1567;SDS011;777;47.156;8.326;2022-12-07T10:11:59;44.97;;;31.98;;
1567;SDS011;777;47.156;8.326;2022-12-07T10:14:28;40.65;;;32.13;;
1567;SDS011;777;47.156;8.326;2022-12-07T10:16:57;46.30;;;35.17;;
1567;SDS011;777;47.156;8.326;2022-12-07T10:19:25;41.95;;;32.75;;
1567;SDS011;777;47.156;8.326;2022-12-07T10:22:01;45.00;;;32.45;;
1567;SDS011;777;47.156;8.326;2022-12-07T10:24:29;42.90;;;32.05;;
1567;SDS011;777;47.156;8.326;2022-12-07T10:26:56;45.97;;;32.20;;
1567;SDS011;777;47.156;8.326;2022-12-07T10:29:28;49.00;;;33.40;;
1567;SDS011;777;47.156;8.326;2022-12-07T10:31:56;48.35;;;33.08;;
1567;SDS011;777;47.156;8.326;2022-12-07T10:34:26;43.05;;;31.40;;
1567;SDS011;777;47.156;8.326;2022-12-07T10:37:13;44.90;;;32.22;;
1567;SDS011;777;47.156;8.326;2022-12-07T10:39:42;47.80;;;32.83;;
1567;SDS011;777;47.156;8.326;2022-12-07T10:42:18;44.70;;;32.33;;
1567;SDS011;777;47.156;8.326;2022-12-07T10:44:47;52.15;;;35.30;;
1567;SDS011;777;47.156;8.326;2022-12-07T10:47:20;50.63;;;34.70;;
1567;SDS011;777;47.156;8.326;2022-12-07T10:52:57;50.55;;;34.70;;
1567;SDS011;777;47.156;8.326;2022-12-07T10:55:48;46.28;;;33.42;;
1567;SDS011;777;47.156;8.326;2022-12-07T10:58:36;49.78;;;34.63;;
1567;SDS011;777;47.156;8.326;2022-12-07T11:01:19;49.17;;;33.90;;
1567;SDS011;777;47.156;8.326;2022-12-07T11:03:54;49.55;;;34.53;;
1567;SDS011;777;47.156;8.326;2022-12-07T11:06:32;49.20;;;33.67;;
1567;SDS011;777;47.156;8.326;2022-12-07T11:09:04;46.63;;;33.55;;
1567;SDS011;777;47.156;8.326;2022-12-07T11:11:50;51.28;;;34.65;;
1567;SDS011;777;47.156;8.326;2022-12-07T11:14:28;47.88;;;32.92;;
1567;SDS011;777;47.156;8.326;2022-12-07T11:17:04;51.33;;;35.53;;
1567;SDS011;777;47.156;8.326;2022-12-07T11:19:49;51.92;;;34.95;;
1567;SDS011;777;47.156;8.326;2022-12-07T11:22:30;51.22;;;34.17;;
1567;SDS011;777;47.156;8.326;2022-12-07T11:25:14;54.55;;;34.88;;
1567;SDS011;777;47.156;8.326;2022-12-07T11:27:47;52.70;;;34.75;;
1567;SDS011;777;47.156;8.326;2022-12-07T11:30:22;53.13;;;35.58;;
1567;SDS011;777;47.156;8.326;2022-12-07T11:33:03;55.92;;;36.03;;
1567;SDS011;777;47.156;8.326;2022-12-07T11:35:43;55.20;;;34.95;;
1567;SDS011;777;47.156;8.326;2022-12-07T11:38:17;54.60;;;35.92;;
1567;SDS011;777;47.156;8.326;2022-12-07T11:40:48;58.90;;;37.05;;
1567;SDS011;777;47.156;8.326;2022-12-07T11:43:20;57.15;;;37.65;;
1567;SDS011;777;47.156;8.326;2022-12-07T11:45:53;57.15;;;37.28;;
1567;SDS011;777;47.156;8.326;2022-12-07T11:48:30;62.05;;;38.60;;
1567;SDS011;777;47.156;8.326;2022-12-07T11:51:00;63.85;;;38.45;;
1567;SDS011;777;47.156;8.326;2022-12-07T11:53:31;62.45;;;39.70;;
1567;SDS011;777;47.156;8.326;2022-12-07T11:56:05;66.53;;;39.90;;
1567;SDS011;777;47.156;8.326;2022-12-07T11:58:42;65.77;;;39.90;;
1567;SDS011;777;47.156;8.326;2022-12-07T12:01:17;69.43;;;39.78;;
1567;SDS011;777;47.156;8.326;2022-12-07T12:03:58;69.85;;;40.70;;
1567;SDS011;777;47.156;8.326;2022-12-07T12:06:32;65.32;;;39.50;;
1567;SDS011;777;47.156;8.326;2022-12-07T12:09:01;64.47;;;39.13;;
1567;SDS011;777;47.156;8.326;2022-12-07T12:11:38;65.40;;;39.10;;
1567;SDS011;777;47.156;8.326;2022-12-07T12:14:41;64.55;;;38.80;;
1567;SDS011;777;47.156;8.326;2022-12-07T12:17:29;65.22;;;39.03;;
1567;SDS011;777;47.156;8.326;2022-12-07T12:20:17;62.78;;;39.08;;
1567;SDS011;777;47.156;8.326;2022-12-07T12:22:48;67.78;;;39.28;;
1567;SDS011;777;47.156;8.326;2022-12-07T12:25:21;64.78;;;37.55;;
1567;SDS011;777;47.156;8.326;2022-12-07T12:27:51;61.25;;;37.10;;
1567;SDS011;777;47.156;8.326;2022-12-07T12:30:25;63.75;;;37.03;;
1567;SDS011;777;47.156;8.326;2022-12-07T12:33:02;60.20;;;36.33;;
1567;SDS011;777;47.156;8.326;2022-12-07T12:35:33;62.10;;;36.50;;
1567;SDS011;777;47.156;8.326;2022-12-07T12:38:25;57.38;;;36.38;;
1567;SDS011;777;47.156;8.326;2022-12-07T12:40:58;62.13;;;37.03;;
1567;SDS011;777;47.156;8.326;2022-12-07T12:58:38;45.88;;;30.33;;
1567;SDS011;777;47.156;8.326;2022-12-07T13:04:24;45.20;;;30.27;;
1567;SDS011;777;47.156;8.326;2022-12-07T13:07:10;45.83;;;30.50;;
1567;SDS011;777;47.156;8.326;2022-12-07T13:09:42;41.50;;;28.00;;
1567;SDS011;777;47.156;8.326;2022-12-07T13:12:12;40.53;;;28.25;;
1567;SDS011;777;47.156;8.326;2022-12-07T13:14:43;40.65;;;28.58;;
1567;SDS011;777;47.156;8.326;2022-12-07T13:20:40;38.17;;;26.10;;
1567;SDS011;777;47.156;8.326;2022-12-07T13:23:20;37.15;;;25.63;;
1567;SDS011;777;47.156;8.326;2022-12-07T13:26:09;37.40;;;27.48;;
1567;SDS011;777;47.156;8.326;2022-12-07T13:28:41;41.58;;;28.13;;
1567;SDS011;777;47.156;8.326;2022-12-07T13:31:12;39.40;;;27.02;;
1567;SDS011;777;47.156;8.326;2022-12-07T13:33:58;38.30;;;26.80;;
1567;SDS011;777;47.156;8.326;2022-12-07T13:42:43;31.38;;;22.42;;
1567;SDS011;777;47.156;8.326;2022-12-07T13:45:17;34.28;;;24.70;;
1567;SDS011;777;47.156;8.326;2022-12-07T13:48:08;31.50;;;22.38;;
1567;SDS011;777;47.156;8.326;2022-12-07T13:50:40;30.65;;;23.30;;
1567;SDS011;777;47.156;8.326;2022-12-07T13:53:10;33.00;;;23.65;;
1567;SDS011;777;47.156;8.326;2022-12-07T13:55:44;33.70;;;24.48;;
1567;SDS011;777;47.156;8.326;2022-12-07T13:58:13;34.63;;;23.50;;
1567;SDS011;777;47.156;8.326;2022-12-07T14:00:41;36.45;;;24.70;;
1567;SDS011;777;47.156;8.326;2022-12-07T14:03:25;34.58;;;24.77;;
1567;SDS011;777;47.156;8.326;2022-12-07T14:06:13;39.75;;;25.45;;
1567;SDS011;777;47.156;8.326;2022-12-07T14:08:46;35.47;;;25.75;;
1567;SDS011;777;47.156;8.326;2022-12-07T14:11:15;38.88;;;27.00;;
1567;SDS011;777;47.156;8.326;2022-12-07T14:13:51;38.33;;;26.83;;
1567;SDS011;777;47.156;8.326;2022-12-07T14:16:24;38.60;;;27.13;;
1567;SDS011;777;47.156;8.326;2022-12-07T14:18:54;37.78;;;26.33;;
1567;SDS011;777;47.156;8.326;2022-12-07T14:21:23;39.63;;;26.67;;
1567;SDS011;777;47.156;8.326;2022-12-07T14:24:02;36.88;;;27.02;;
1567;SDS011;777;47.156;8.326;2022-12-07T14:26:37;39.67;;;28.38;;
1567;SDS011;777;47.156;8.326;2022-12-07T14:29:22;39.60;;;27.73;;
1567;SDS011;777;47.156;8.326;2022-12-07T14:31:58;40.28;;;28.27;;
1567;SDS011;777;47.156;8.326;2022-12-07T14:34:41;39.25;;;27.40;;
1567;SDS011;777;47.156;8.326;2022-12-07T14:37:08;39.67;;;28.13;;
1567;SDS011;777;47.156;8.326;2022-12-07T14:39:36;42.67;;;28.88;;
1567;SDS011;777;47.156;8.326;2022-12-07T14:42:03;40.30;;;28.55;;
1567;SDS011;777;47.156;8.326;2022-12-07T14:44:31;45.13;;;30.35;;
1567;SDS011;777;47.156;8.326;2022-12-07T14:46:58;42.75;;;29.70;;
1567;SDS011;777;47.156;8.326;2022-12-07T14:49:25;47.10;;;30.65;;
1567;SDS011;777;47.156;8.326;2022-12-07T14:51:53;43.13;;;29.42;;
1567;SDS011;777;47.156;8.326;2022-12-07T14:54:20;43.63;;;30.67;;
1567;SDS011;777;47.156;8.326;2022-12-07T14:56:51;48.20;;;35.50;;
1567;SDS011;777;47.156;8.326;2022-12-07T14:59:18;41.88;;;30.35;;
1567;SDS011;777;47.156;8.326;2022-12-07T15:01:47;44.65;;;30.10;;
1567;SDS011;777;47.156;8.326;2022-12-07T15:04:14;42.85;;;29.25;;
1567;SDS011;777;47.156;8.326;2022-12-07T15:06:41;49.40;;;31.75;;
1567;SDS011;777;47.156;8.326;2022-12-07T15:09:09;45.85;;;29.98;;
1567;SDS011;777;47.156;8.326;2022-12-07T15:11:36;41.08;;;28.15;;
1567;SDS011;777;47.156;8.326;2022-12-07T15:14:03;40.38;;;28.65;;
1567;SDS011;777;47.156;8.326;2022-12-07T15:16:38;45.97;;;29.58;;
1567;SDS011;777;47.156;8.326;2022-12-07T15:19:11;44.80;;;28.55;;
1567;SDS011;777;47.156;8.326;2022-12-07T15:21:39;41.65;;;27.58;;
1567;SDS011;777;47.156;8.326;2022-12-07T15:24:08;48.45;;;30.55;;
1567;SDS011;777;47.156;8.326;2022-12-07T15:26:36;52.85;;;31.08;;
1567;SDS011;777;47.156;8.326;2022-12-07T15:29:05;52.22;;;31.73;;
1567;SDS011;777;47.156;8.326;2022-12-07T15:31:32;48.47;;;31.10;;
1567;SDS011;777;47.156;8.326;2022-12-07T15:34:00;47.97;;;31.73;;
1567;SDS011;777;47.156;8.326;2022-12-07T15:36:29;51.00;;;32.25;;
1567;SDS011;777;47.156;8.326;2022-12-07T15:38:57;51.83;;;32.78;;
1567;SDS011;777;47.156;8.326;2022-12-07T15:41:24;52.17;;;33.92;;
1567;SDS011;777;47.156;8.326;2022-12-07T15:43:52;54.83;;;32.42;;
1567;SDS011;777;47.156;8.326;2022-12-07T15:46:36;51.70;;;33.17;;
1567;SDS011;777;47.156;8.326;2022-12-07T15:49:04;52.58;;;32.60;;
1567;SDS011;777;47.156;8.326;2022-12-07T15:51:36;52.40;;;31.55;;
1567;SDS011;777;47.156;8.326;2022-12-07T15:54:03;47.90;;;30.52;;
1567;SDS011;777;47.156;8.326;2022-12-07T15:56:30;50.75;;;30.90;;
1567;SDS011;777;47.156;8.326;2022-12-07T15:58:57;49.55;;;29.98;;
1567;SDS011;777;47.156;8.326;2022-12-07T16:01:24;47.60;;;31.23;;